sensor_id;sensor_type;location;lat;lon;timestamp;P1;durP1;ratioP1;P2;durP2;ratioP2
7150;SDS011;3617;48.836;9.172;2023-03-04T00:01:00;38.00;;;17.67;;
7150;SDS011;3617;48.836;9.172;2023-03-04T00:03:26;34.93;;;16.10;;
7150;SDS011;3617;48.836;9.172;2023-03-04T00:05:52;42.90;;;19.20;;
7150;SDS011;3617;48.836;9.172;2023-03-04T00:08:18;38.07;;;17.07;;
7150;SDS011;3617;48.836;9.172;2023-03-04T00:10:44;42.23;;;18.20;;
7150;SDS011;3617;48.836;9.172;2023-03-04T00:13:10;38.87;;;17.20;;
7150;SDS011;3617;48.836;9.172;2023-03-04T00:15:36;35.27;;;17.20;;
7150;SDS011;3617;48.836;9.172;2023-03-04T00:18:02;34.90;;;15.83;;
7150;SDS011;3617;48.836;9.172;2023-03-04T00:20:29;39.53;;;17.67;;
7150;SDS011;3617;48.836;9.172;2023-03-04T00:22:55;34.53;;;15.97;;
7150;SDS011;3617;48.836;9.172;2023-03-04T00:25:20;33.73;;;16.20;;
7150;SDS011;3617;48.836;9.172;2023-03-04T00:27:46;34.60;;;16.80;;
7150;SDS011;3617;48.836;9.172;2023-03-04T00:30:12;38.50;;;17.23;;
7150;SDS011;3617;48.836;9.172;2023-03-04T00:32:38;33.27;;;16.27;;
7150;SDS011;3617;48.836;9.172;2023-03-04T00:35:05;35.73;;;16.40;;
7150;SDS011;3617;48.836;9.172;2023-03-04T00:37:31;39.87;;;17.00;;
7150;SDS011;3617;48.836;9.172;2023-03-04T00:39:58;36.33;;;16.90;;
7150;SDS011;3617;48.836;9.172;2023-03-04T00:42:24;33.70;;;17.07;;
7150;SDS011;3617;48.836;9.172;2023-03-04T00:44:50;41.20;;;17.10;;
7150;SDS011;3617;48.836;9.172;2023-03-04T00:47:16;35.43;;;16.77;;
7150;SDS011;3617;48.836;9.172;2023-03-04T00:49:42;33.73;;;16.30;;
7150;SDS011;3617;48.836;9.172;2023-03-04T00:52:08;33.27;;;16.50;;
7150;SDS011;3617;48.836;9.172;2023-03-04T00:54:34;35.63;;;17.17;;
7150;SDS011;3617;48.836;9.172;2023-03-04T00:57:00;38.20;;;18.23;;
7150;SDS011;3617;48.836;9.172;2023-03-04T00:59:26;31.17;;;16.53;;
7150;SDS011;3617;48.836;9.172;2023-03-04T01:01:52;35.77;;;17.50;;
7150;SDS011;3617;48.836;9.172;2023-03-04T01:04:18;37.13;;;16.77;;
7150;SDS011;3617;48.836;9.172;2023-03-04T01:06:44;39.17;;;17.13;;
7150;SDS011;3617;48.836;9.172;2023-03-04T01:09:10;39.87;;;17.83;;
7150;SDS011;3617;48.836;9.172;2023-03-04T01:11:36;30.87;;;16.13;;
7150;SDS011;3617;48.836;9.172;2023-03-04T01:14:02;33.97;;;17.57;;
7150;SDS011;3617;48.836;9.172;2023-03-04T01:16:28;31.63;;;16.40;;
7150;SDS011;3617;48.836;9.172;2023-03-04T01:18:54;33.53;;;15.90;;
7150;SDS011;3617;48.836;9.172;2023-03-04T01:21:20;33.47;;;17.40;;
7150;SDS011;3617;48.836;9.172;2023-03-04T01:23:46;32.67;;;15.70;;
7150;SDS011;3617;48.836;9.172;2023-03-04T01:26:13;30.23;;;15.43;;
7150;SDS011;3617;48.836;9.172;2023-03-04T01:28:39;32.07;;;16.30;;
7150;SDS011;3617;48.836;9.172;2023-03-04T01:31:05;34.03;;;15.73;;
7150;SDS011;3617;48.836;9.172;2023-03-04T01:33:31;32.53;;;15.50;;
7150;SDS011;3617;48.836;9.172;2023-03-04T01:35:57;33.27;;;16.23;;
7150;SDS011;3617;48.836;9.172;2023-03-04T01:38:23;33.70;;;15.87;;
7150;SDS011;3617;48.836;9.172;2023-03-04T01:40:49;34.23;;;15.00;;
7150;SDS011;3617;48.836;9.172;2023-03-04T01:43:22;35.97;;;15.50;;
7150;SDS011;3617;48.836;9.172;2023-03-04T01:45:49;32.00;;;16.07;;
7150;SDS011;3617;48.836;9.172;2023-03-04T01:48:17;32.80;;;14.80;;
7150;SDS011;3617;48.836;9.172;2023-03-04T01:50:44;34.27;;;15.57;;
7150;SDS011;3617;48.836;9.172;2023-03-04T01:53:16;31.33;;;16.13;;
7150;SDS011;3617;48.836;9.172;2023-03-04T01:55:42;36.07;;;15.40;;
7150;SDS011;3617;48.836;9.172;2023-03-04T01:58:09;29.10;;;15.40;;
7150;SDS011;3617;48.836;9.172;2023-03-04T02:00:35;40.53;;;16.23;;
7150;SDS011;3617;48.836;9.172;2023-03-04T02:03:05;31.33;;;15.20;;
7150;SDS011;3617;48.836;9.172;2023-03-04T02:05:32;33.00;;;15.33;;
7150;SDS011;3617;48.836;9.172;2023-03-04T02:07:58;31.20;;;15.20;;
7150;SDS011;3617;48.836;9.172;2023-03-04T02:10:26;34.30;;;14.67;;
7150;SDS011;3617;48.836;9.172;2023-03-04T02:12:52;26.83;;;14.50;;
7150;SDS011;3617;48.836;9.172;2023-03-04T02:15:19;31.77;;;16.07;;
7150;SDS011;3617;48.836;9.172;2023-03-04T02:17:45;30.03;;;15.07;;
7150;SDS011;3617;48.836;9.172;2023-03-04T02:22:39;28.90;;;14.00;;
7150;SDS011;3617;48.836;9.172;2023-03-04T02:25:12;34.23;;;14.23;;
7150;SDS011;3617;48.836;9.172;2023-03-04T02:27:40;26.67;;;14.80;;
7150;SDS011;3617;48.836;9.172;2023-03-04T02:30:06;26.50;;;13.53;;
7150;SDS011;3617;48.836;9.172;2023-03-04T02:32:32;26.27;;;12.93;;
7150;SDS011;3617;48.836;9.172;2023-03-04T02:34:58;30.77;;;13.80;;
7150;SDS011;3617;48.836;9.172;2023-03-04T02:37:24;29.30;;;13.97;;
7150;SDS011;3617;48.836;9.172;2023-03-04T02:39:50;29.60;;;14.40;;
7150;SDS011;3617;48.836;9.172;2023-03-04T02:42:16;25.87;;;13.87;;
7150;SDS011;3617;48.836;9.172;2023-03-04T02:44:43;28.47;;;13.20;;
7150;SDS011;3617;48.836;9.172;2023-03-04T02:47:12;27.53;;;13.17;;
7150;SDS011;3617;48.836;9.172;2023-03-04T02:49:39;21.60;;;12.27;;
7150;SDS011;3617;48.836;9.172;2023-03-04T02:52:09;24.43;;;12.67;;
7150;SDS011;3617;48.836;9.172;2023-03-04T02:54:36;32.83;;;14.23;;
7150;SDS011;3617;48.836;9.172;2023-03-04T02:57:03;30.60;;;14.10;;
7150;SDS011;3617;48.836;9.172;2023-03-04T02:59:30;28.70;;;13.43;;
7150;SDS011;3617;48.836;9.172;2023-03-04T03:01:56;26.40;;;13.63;;
7150;SDS011;3617;48.836;9.172;2023-03-04T03:04:22;32.20;;;13.87;;
7150;SDS011;3617;48.836;9.172;2023-03-04T03:06:48;26.60;;;12.63;;
7150;SDS011;3617;48.836;9.172;2023-03-04T03:09:15;28.13;;;13.50;;
7150;SDS011;3617;48.836;9.172;2023-03-04T03:11:41;26.77;;;13.63;;
7150;SDS011;3617;48.836;9.172;2023-03-04T03:14:07;27.83;;;12.53;;
7150;SDS011;3617;48.836;9.172;2023-03-04T03:16:33;28.03;;;12.67;;
7150;SDS011;3617;48.836;9.172;2023-03-04T03:18:59;25.43;;;13.00;;
7150;SDS011;3617;48.836;9.172;2023-03-04T03:21:25;27.87;;;12.83;;
7150;SDS011;3617;48.836;9.172;2023-03-04T03:23:51;32.83;;;13.87;;
7150;SDS011;3617;48.836;9.172;2023-03-04T03:26:17;25.80;;;12.97;;
7150;SDS011;3617;48.836;9.172;2023-03-04T03:28:44;26.80;;;12.23;;
7150;SDS011;3617;48.836;9.172;2023-03-04T03:31:10;27.73;;;13.13;;
7150;SDS011;3617;48.836;9.172;2023-03-04T03:33:36;25.60;;;12.83;;
7150;SDS011;3617;48.836;9.172;2023-03-04T03:36:02;27.60;;;13.87;;
7150;SDS011;3617;48.836;9.172;2023-03-04T03:38:28;25.27;;;12.73;;
7150;SDS011;3617;48.836;9.172;2023-03-04T03:40:54;26.13;;;12.33;;
7150;SDS011;3617;48.836;9.172;2023-03-04T03:43:20;26.90;;;13.97;;
7150;SDS011;3617;48.836;9.172;2023-03-04T03:45:46;26.80;;;13.10;;
7150;SDS011;3617;48.836;9.172;2023-03-04T03:48:12;26.30;;;13.73;;
7150;SDS011;3617;48.836;9.172;2023-03-04T03:50:38;31.83;;;14.23;;
7150;SDS011;3617;48.836;9.172;2023-03-04T03:53:04;27.80;;;13.60;;
7150;SDS011;3617;48.836;9.172;2023-03-04T03:55:30;32.80;;;13.37;;
7150;SDS011;3617;48.836;9.172;2023-03-04T03:57:56;36.53;;;14.13;;
7150;SDS011;3617;48.836;9.172;2023-03-04T04:00:23;27.67;;;14.43;;
7150;SDS011;3617;48.836;9.172;2023-03-04T04:02:49;28.47;;;14.30;;
7150;SDS011;3617;48.836;9.172;2023-03-04T04:05:15;32.43;;;15.23;;
7150;SDS011;3617;48.836;9.172;2023-03-04T04:07:41;26.47;;;12.10;;
7150;SDS011;3617;48.836;9.172;2023-03-04T04:10:07;31.07;;;13.83;;
7150;SDS011;3617;48.836;9.172;2023-03-04T04:12:33;30.43;;;14.50;;
7150;SDS011;3617;48.836;9.172;2023-03-04T04:14:59;30.43;;;13.67;;
7150;SDS011;3617;48.836;9.172;2023-03-04T04:17:25;31.73;;;14.33;;
7150;SDS011;3617;48.836;9.172;2023-03-04T04:19:52;31.30;;;13.43;;
7150;SDS011;3617;48.836;9.172;2023-03-04T04:22:18;31.03;;;14.23;;
7150;SDS011;3617;48.836;9.172;2023-03-04T04:24:45;31.90;;;13.80;;
7150;SDS011;3617;48.836;9.172;2023-03-04T04:27:11;27.10;;;14.03;;
7150;SDS011;3617;48.836;9.172;2023-03-04T04:29:37;25.80;;;13.07;;
7150;SDS011;3617;48.836;9.172;2023-03-04T04:32:03;35.23;;;14.33;;
7150;SDS011;3617;48.836;9.172;2023-03-04T04:34:29;29.27;;;13.80;;
7150;SDS011;3617;48.836;9.172;2023-03-04T04:36:55;30.77;;;13.47;;
7150;SDS011;3617;48.836;9.172;2023-03-04T04:39:21;26.33;;;13.97;;
7150;SDS011;3617;48.836;9.172;2023-03-04T04:41:47;25.43;;;14.67;;
7150;SDS011;3617;48.836;9.172;2023-03-04T04:44:13;28.63;;;14.63;;
7150;SDS011;3617;48.836;9.172;2023-03-04T04:46:40;30.67;;;14.73;;
7150;SDS011;3617;48.836;9.172;2023-03-04T04:49:06;28.40;;;14.83;;
7150;SDS011;3617;48.836;9.172;2023-03-04T04:51:33;36.83;;;15.37;;
7150;SDS011;3617;48.836;9.172;2023-03-04T04:54:00;31.37;;;14.50;;
7150;SDS011;3617;48.836;9.172;2023-03-04T04:56:26;31.33;;;15.57;;
7150;SDS011;3617;48.836;9.172;2023-03-04T04:58:53;27.20;;;14.47;;
7150;SDS011;3617;48.836;9.172;2023-03-04T05:01:19;36.80;;;15.17;;
7150;SDS011;3617;48.836;9.172;2023-03-04T05:03:46;34.77;;;14.37;;
7150;SDS011;3617;48.836;9.172;2023-03-04T05:06:14;27.17;;;12.93;;
7150;SDS011;3617;48.836;9.172;2023-03-04T05:08:40;28.00;;;13.10;;
7150;SDS011;3617;48.836;9.172;2023-03-04T05:11:06;31.10;;;13.07;;
7150;SDS011;3617;48.836;9.172;2023-03-04T05:13:32;31.47;;;14.37;;
7150;SDS011;3617;48.836;9.172;2023-03-04T05:15:59;32.90;;;14.57;;
7150;SDS011;3617;48.836;9.172;2023-03-04T05:18:25;35.10;;;14.63;;
7150;SDS011;3617;48.836;9.172;2023-03-04T05:21:01;36.10;;;15.37;;
7150;SDS011;3617;48.836;9.172;2023-03-04T05:23:28;34.97;;;13.87;;
7150;SDS011;3617;48.836;9.172;2023-03-04T05:25:54;28.27;;;13.13;;
7150;SDS011;3617;48.836;9.172;2023-03-04T05:30:46;31.47;;;15.07;;
7150;SDS011;3617;48.836;9.172;2023-03-04T05:33:13;29.47;;;14.63;;
7150;SDS011;3617;48.836;9.172;2023-03-04T05:35:40;30.43;;;13.73;;
7150;SDS011;3617;48.836;9.172;2023-03-04T05:38:07;30.57;;;14.63;;
7150;SDS011;3617;48.836;9.172;2023-03-04T05:40:33;34.70;;;14.53;;
7150;SDS011;3617;48.836;9.172;2023-03-04T05:42:59;30.77;;;14.27;;
7150;SDS011;3617;48.836;9.172;2023-03-04T05:45:25;33.37;;;14.93;;
7150;SDS011;3617;48.836;9.172;2023-03-04T05:47:52;29.87;;;15.70;;
7150;SDS011;3617;48.836;9.172;2023-03-04T05:50:19;32.13;;;14.40;;
7150;SDS011;3617;48.836;9.172;2023-03-04T05:52:45;31.53;;;14.30;;
7150;SDS011;3617;48.836;9.172;2023-03-04T05:55:12;32.97;;;15.57;;
7150;SDS011;3617;48.836;9.172;2023-03-04T05:57:38;32.93;;;15.00;;
7150;SDS011;3617;48.836;9.172;2023-03-04T06:00:04;35.23;;;15.93;;
7150;SDS011;3617;48.836;9.172;2023-03-04T06:02:33;34.07;;;15.07;;
7150;SDS011;3617;48.836;9.172;2023-03-04T06:04:59;33.97;;;15.70;;
7150;SDS011;3617;48.836;9.172;2023-03-04T06:07:25;37.57;;;14.73;;
7150;SDS011;3617;48.836;9.172;2023-03-04T06:09:51;32.57;;;14.63;;
7150;SDS011;3617;48.836;9.172;2023-03-04T06:12:17;33.20;;;15.70;;
7150;SDS011;3617;48.836;9.172;2023-03-04T06:14:43;36.30;;;14.90;;
7150;SDS011;3617;48.836;9.172;2023-03-04T06:17:09;34.60;;;14.47;;
7150;SDS011;3617;48.836;9.172;2023-03-04T06:19:35;32.03;;;15.67;;
7150;SDS011;3617;48.836;9.172;2023-03-04T06:22:05;35.10;;;14.63;;
7150;SDS011;3617;48.836;9.172;2023-03-04T06:24:31;33.50;;;15.33;;
7150;SDS011;3617;48.836;9.172;2023-03-04T06:26:57;32.90;;;16.77;;
7150;SDS011;3617;48.836;9.172;2023-03-04T06:29:23;32.50;;;15.17;;
7150;SDS011;3617;48.836;9.172;2023-03-04T06:31:49;38.20;;;15.57;;
7150;SDS011;3617;48.836;9.172;2023-03-04T06:34:15;35.93;;;15.20;;
7150;SDS011;3617;48.836;9.172;2023-03-04T06:36:41;39.00;;;15.90;;
7150;SDS011;3617;48.836;9.172;2023-03-04T06:39:07;33.87;;;15.73;;
7150;SDS011;3617;48.836;9.172;2023-03-04T06:41:33;37.03;;;14.07;;
7150;SDS011;3617;48.836;9.172;2023-03-04T06:44:00;37.77;;;16.30;;
7150;SDS011;3617;48.836;9.172;2023-03-04T06:46:26;47.77;;;17.10;;
7150;SDS011;3617;48.836;9.172;2023-03-04T06:48:52;39.70;;;15.57;;
7150;SDS011;3617;48.836;9.172;2023-03-04T06:51:18;37.10;;;15.00;;
7150;SDS011;3617;48.836;9.172;2023-03-04T06:53:44;35.63;;;15.17;;
7150;SDS011;3617;48.836;9.172;2023-03-04T06:56:11;40.90;;;17.37;;
7150;SDS011;3617;48.836;9.172;2023-03-04T06:58:37;41.60;;;16.30;;
7150;SDS011;3617;48.836;9.172;2023-03-04T07:01:19;38.30;;;15.20;;
7150;SDS011;3617;48.836;9.172;2023-03-04T07:03:46;33.00;;;15.00;;
7150;SDS011;3617;48.836;9.172;2023-03-04T07:06:13;35.60;;;15.43;;
7150;SDS011;3617;48.836;9.172;2023-03-04T07:08:40;34.73;;;14.87;;
7150;SDS011;3617;48.836;9.172;2023-03-04T07:11:06;35.53;;;15.50;;
7150;SDS011;3617;48.836;9.172;2023-03-04T07:13:32;31.43;;;14.40;;
7150;SDS011;3617;48.836;9.172;2023-03-04T07:16:02;32.63;;;14.40;;
7150;SDS011;3617;48.836;9.172;2023-03-04T07:18:28;39.03;;;15.97;;
7150;SDS011;3617;48.836;9.172;2023-03-04T07:20:54;33.33;;;14.73;;
7150;SDS011;3617;48.836;9.172;2023-03-04T07:23:20;31.43;;;13.90;;
7150;SDS011;3617;48.836;9.172;2023-03-04T07:25:47;36.57;;;15.37;;
7150;SDS011;3617;48.836;9.172;2023-03-04T07:28:13;32.40;;;14.73;;
7150;SDS011;3617;48.836;9.172;2023-03-04T07:30:39;33.23;;;14.43;;
7150;SDS011;3617;48.836;9.172;2023-03-04T07:33:05;30.33;;;14.10;;
7150;SDS011;3617;48.836;9.172;2023-03-04T07:35:31;27.90;;;13.80;;
7150;SDS011;3617;48.836;9.172;2023-03-04T07:37:57;28.30;;;13.10;;
7150;SDS011;3617;48.836;9.172;2023-03-04T07:40:23;32.07;;;13.57;;
7150;SDS011;3617;48.836;9.172;2023-03-04T07:42:50;31.67;;;13.77;;
7150;SDS011;3617;48.836;9.172;2023-03-04T07:45:16;28.27;;;12.80;;
7150;SDS011;3617;48.836;9.172;2023-03-04T07:47:42;29.37;;;13.57;;
7150;SDS011;3617;48.836;9.172;2023-03-04T07:50:09;27.80;;;12.60;;
7150;SDS011;3617;48.836;9.172;2023-03-04T07:52:39;23.77;;;12.57;;
7150;SDS011;3617;48.836;9.172;2023-03-04T07:55:05;22.87;;;11.27;;
7150;SDS011;3617;48.836;9.172;2023-03-04T07:57:31;28.27;;;12.57;;
7150;SDS011;3617;48.836;9.172;2023-03-04T07:59:57;29.23;;;12.27;;
7150;SDS011;3617;48.836;9.172;2023-03-04T08:02:23;26.00;;;11.97;;
7150;SDS011;3617;48.836;9.172;2023-03-04T08:04:49;27.70;;;11.67;;
7150;SDS011;3617;48.836;9.172;2023-03-04T08:07:15;24.17;;;11.63;;
7150;SDS011;3617;48.836;9.172;2023-03-04T08:09:41;23.63;;;11.53;;
7150;SDS011;3617;48.836;9.172;2023-03-04T08:12:07;24.57;;;12.03;;
7150;SDS011;3617;48.836;9.172;2023-03-04T08:14:33;28.33;;;12.00;;
7150;SDS011;3617;48.836;9.172;2023-03-04T08:16:59;29.20;;;11.93;;
7150;SDS011;3617;48.836;9.172;2023-03-04T08:19:25;28.43;;;12.27;;
7150;SDS011;3617;48.836;9.172;2023-03-04T08:21:51;26.00;;;12.83;;
7150;SDS011;3617;48.836;9.172;2023-03-04T08:24:17;26.70;;;12.97;;
7150;SDS011;3617;48.836;9.172;2023-03-04T08:26:44;28.20;;;13.30;;
7150;SDS011;3617;48.836;9.172;2023-03-04T08:29:12;25.57;;;12.73;;
7150;SDS011;3617;48.836;9.172;2023-03-04T08:31:38;24.87;;;12.00;;
7150;SDS011;3617;48.836;9.172;2023-03-04T08:34:05;29.40;;;13.37;;
7150;SDS011;3617;48.836;9.172;2023-03-04T08:36:32;28.40;;;13.43;;
7150;SDS011;3617;48.836;9.172;2023-03-04T08:38:58;29.63;;;13.83;;
7150;SDS011;3617;48.836;9.172;2023-03-04T08:41:24;31.23;;;13.27;;
7150;SDS011;3617;48.836;9.172;2023-03-04T08:43:51;25.37;;;13.47;;
7150;SDS011;3617;48.836;9.172;2023-03-04T08:46:17;29.17;;;12.50;;
7150;SDS011;3617;48.836;9.172;2023-03-04T08:48:43;33.00;;;13.83;;
7150;SDS011;3617;48.836;9.172;2023-03-04T08:51:10;25.90;;;12.63;;
7150;SDS011;3617;48.836;9.172;2023-03-04T08:53:37;30.73;;;13.63;;
7150;SDS011;3617;48.836;9.172;2023-03-04T08:56:04;30.13;;;13.10;;
7150;SDS011;3617;48.836;9.172;2023-03-04T08:58:30;28.90;;;12.93;;
7150;SDS011;3617;48.836;9.172;2023-03-04T09:00:57;23.17;;;12.00;;
7150;SDS011;3617;48.836;9.172;2023-03-04T09:03:23;25.17;;;11.87;;
7150;SDS011;3617;48.836;9.172;2023-03-04T09:05:49;27.20;;;12.60;;
7150;SDS011;3617;48.836;9.172;2023-03-04T09:08:15;23.47;;;12.03;;
7150;SDS011;3617;48.836;9.172;2023-03-04T09:10:42;23.47;;;12.50;;
7150;SDS011;3617;48.836;9.172;2023-03-04T09:13:08;27.53;;;12.13;;
7150;SDS011;3617;48.836;9.172;2023-03-04T09:15:35;23.03;;;11.77;;
7150;SDS011;3617;48.836;9.172;2023-03-04T09:18:02;28.13;;;12.00;;
7150;SDS011;3617;48.836;9.172;2023-03-04T09:20:29;21.80;;;11.87;;
7150;SDS011;3617;48.836;9.172;2023-03-04T09:22:55;23.73;;;11.60;;
7150;SDS011;3617;48.836;9.172;2023-03-04T09:25:21;21.40;;;10.97;;
7150;SDS011;3617;48.836;9.172;2023-03-04T09:27:47;26.83;;;12.47;;
7150;SDS011;3617;48.836;9.172;2023-03-04T09:30:13;28.00;;;12.07;;
7150;SDS011;3617;48.836;9.172;2023-03-04T09:32:39;19.60;;;10.93;;
7150;SDS011;3617;48.836;9.172;2023-03-04T09:35:05;21.17;;;11.20;;
7150;SDS011;3617;48.836;9.172;2023-03-04T09:37:32;20.90;;;10.57;;
7150;SDS011;3617;48.836;9.172;2023-03-04T09:39:58;25.67;;;12.13;;
7150;SDS011;3617;48.836;9.172;2023-03-04T09:42:25;21.60;;;11.07;;
7150;SDS011;3617;48.836;9.172;2023-03-04T09:44:51;22.93;;;11.80;;
7150;SDS011;3617;48.836;9.172;2023-03-04T09:47:18;23.33;;;11.80;;
7150;SDS011;3617;48.836;9.172;2023-03-04T09:49:47;21.63;;;11.13;;
7150;SDS011;3617;48.836;9.172;2023-03-04T09:52:23;27.53;;;10.93;;
7150;SDS011;3617;48.836;9.172;2023-03-04T09:54:55;23.63;;;11.53;;
7150;SDS011;3617;48.836;9.172;2023-03-04T09:57:27;22.13;;;11.33;;
7150;SDS011;3617;48.836;9.172;2023-03-04T10:00:06;22.93;;;10.87;;
7150;SDS011;3617;48.836;9.172;2023-03-04T10:05:06;24.07;;;10.90;;
7150;SDS011;3617;48.836;9.172;2023-03-04T10:07:33;21.67;;;10.87;;
7150;SDS011;3617;48.836;9.172;2023-03-04T10:10:03;19.53;;;10.60;;
7150;SDS011;3617;48.836;9.172;2023-03-04T10:12:31;22.23;;;12.10;;
7150;SDS011;3617;48.836;9.172;2023-03-04T10:15:03;24.43;;;11.83;;
7150;SDS011;3617;48.836;9.172;2023-03-04T10:19:57;22.07;;;12.07;;
7150;SDS011;3617;48.836;9.172;2023-03-04T10:22:29;18.03;;;10.00;;
7150;SDS011;3617;48.836;9.172;2023-03-04T10:24:57;22.93;;;12.07;;
7150;SDS011;3617;48.836;9.172;2023-03-04T10:27:24;25.87;;;12.37;;
7150;SDS011;3617;48.836;9.172;2023-03-04T10:29:50;23.17;;;12.63;;
7150;SDS011;3617;48.836;9.172;2023-03-04T10:32:18;23.13;;;12.20;;
7150;SDS011;3617;48.836;9.172;2023-03-04T10:34:44;24.33;;;11.87;;
7150;SDS011;3617;48.836;9.172;2023-03-04T10:37:10;25.43;;;12.73;;
7150;SDS011;3617;48.836;9.172;2023-03-04T10:39:40;26.43;;;13.53;;
7150;SDS011;3617;48.836;9.172;2023-03-04T10:44:41;26.70;;;13.30;;
7150;SDS011;3617;48.836;9.172;2023-03-04T10:47:10;26.00;;;11.63;;
7150;SDS011;3617;48.836;9.172;2023-03-04T10:52:19;25.97;;;13.30;;
7150;SDS011;3617;48.836;9.172;2023-03-04T10:54:49;27.83;;;13.67;;
7150;SDS011;3617;48.836;9.172;2023-03-04T10:57:34;30.83;;;14.43;;
7150;SDS011;3617;48.836;9.172;2023-03-04T11:02:43;33.23;;;14.23;;
7150;SDS011;3617;48.836;9.172;2023-03-04T11:05:22;25.43;;;13.90;;
7150;SDS011;3617;48.836;9.172;2023-03-04T11:07:53;29.13;;;14.17;;
7150;SDS011;3617;48.836;9.172;2023-03-04T11:15:24;27.87;;;13.87;;
7150;SDS011;3617;48.836;9.172;2023-03-04T11:17:58;26.80;;;14.77;;
7150;SDS011;3617;48.836;9.172;2023-03-04T11:20:27;24.80;;;13.53;;
7150;SDS011;3617;48.836;9.172;2023-03-04T11:22:54;28.23;;;14.03;;
7150;SDS011;3617;48.836;9.172;2023-03-04T11:25:29;31.17;;;15.20;;
7150;SDS011;3617;48.836;9.172;2023-03-04T11:27:58;32.63;;;14.83;;
7150;SDS011;3617;48.836;9.172;2023-03-04T11:33:09;30.27;;;14.57;;
7150;SDS011;3617;48.836;9.172;2023-03-04T11:35:38;28.97;;;15.27;;
7150;SDS011;3617;48.836;9.172;2023-03-04T11:40:43;34.13;;;15.23;;
7150;SDS011;3617;48.836;9.172;2023-03-04T11:43:11;29.03;;;15.10;;
7150;SDS011;3617;48.836;9.172;2023-03-04T11:48:08;33.70;;;16.53;;
7150;SDS011;3617;48.836;9.172;2023-03-04T11:50:45;30.73;;;16.63;;
7150;SDS011;3617;48.836;9.172;2023-03-04T11:56:01;37.47;;;17.50;;
7150;SDS011;3617;48.836;9.172;2023-03-04T12:01:08;34.33;;;15.80;;
7150;SDS011;3617;48.836;9.172;2023-03-04T12:03:43;31.03;;;16.50;;
7150;SDS011;3617;48.836;9.172;2023-03-04T12:06:31;32.00;;;15.47;;
7150;SDS011;3617;48.836;9.172;2023-03-04T12:09:02;34.73;;;15.73;;
7150;SDS011;3617;48.836;9.172;2023-03-04T12:11:38;32.60;;;15.40;;
7150;SDS011;3617;48.836;9.172;2023-03-04T12:24:42;37.10;;;17.43;;
7150;SDS011;3617;48.836;9.172;2023-03-04T12:27:16;38.13;;;17.93;;
7150;SDS011;3617;48.836;9.172;2023-03-04T12:30:05;38.27;;;16.67;;
7150;SDS011;3617;48.836;9.172;2023-03-04T12:46:25;38.13;;;17.13;;
7150;SDS011;3617;48.836;9.172;2023-03-04T12:48:56;37.77;;;17.47;;
7150;SDS011;3617;48.836;9.172;2023-03-04T12:56:35;37.67;;;16.63;;
7150;SDS011;3617;48.836;9.172;2023-03-04T12:59:01;33.97;;;16.87;;
7150;SDS011;3617;48.836;9.172;2023-03-04T13:04:14;36.57;;;16.37;;
7150;SDS011;3617;48.836;9.172;2023-03-04T13:06:48;32.40;;;16.13;;
7150;SDS011;3617;48.836;9.172;2023-03-04T13:09:23;33.00;;;16.73;;
7150;SDS011;3617;48.836;9.172;2023-03-04T13:11:52;32.63;;;15.33;;
7150;SDS011;3617;48.836;9.172;2023-03-04T13:21:58;28.40;;;13.20;;
7150;SDS011;3617;48.836;9.172;2023-03-04T13:24:46;31.43;;;14.13;;
7150;SDS011;3617;48.836;9.172;2023-03-04T13:30:00;29.43;;;13.07;;
7150;SDS011;3617;48.836;9.172;2023-03-04T13:32:36;29.53;;;12.03;;
7150;SDS011;3617;48.836;9.172;2023-03-04T13:35:22;23.07;;;11.73;;
7150;SDS011;3617;48.836;9.172;2023-03-04T13:37:58;22.30;;;11.17;;
7150;SDS011;3617;48.836;9.172;2023-03-04T13:40:33;21.17;;;10.57;;
7150;SDS011;3617;48.836;9.172;2023-03-04T13:45:43;25.33;;;11.07;;
7150;SDS011;3617;48.836;9.172;2023-03-04T13:51:32;22.10;;;10.40;;
7150;SDS011;3617;48.836;9.172;2023-03-04T13:58:50;24.13;;;10.20;;
7150;SDS011;3617;48.836;9.172;2023-03-04T14:01:24;21.70;;;9.30;;
7150;SDS011;3617;48.836;9.172;2023-03-04T14:03:51;20.70;;;8.97;;
7150;SDS011;3617;48.836;9.172;2023-03-04T14:06:25;21.07;;;9.57;;
7150;SDS011;3617;48.836;9.172;2023-03-04T14:08:52;18.17;;;8.47;;
7150;SDS011;3617;48.836;9.172;2023-03-04T14:11:23;22.87;;;9.97;;
7150;SDS011;3617;48.836;9.172;2023-03-04T14:13:49;20.57;;;8.87;;
7150;SDS011;3617;48.836;9.172;2023-03-04T14:16:19;18.43;;;9.73;;
7150;SDS011;3617;48.836;9.172;2023-03-04T14:18:55;21.50;;;9.70;;
7150;SDS011;3617;48.836;9.172;2023-03-04T14:21:21;22.93;;;10.33;;
7150;SDS011;3617;48.836;9.172;2023-03-04T14:23:47;20.40;;;10.47;;
7150;SDS011;3617;48.836;9.172;2023-03-04T14:26:24;24.33;;;10.67;;
7150;SDS011;3617;48.836;9.172;2023-03-04T14:28:51;24.07;;;10.50;;
7150;SDS011;3617;48.836;9.172;2023-03-04T14:31:21;25.07;;;11.07;;
7150;SDS011;3617;48.836;9.172;2023-03-04T14:33:49;23.40;;;10.70;;
7150;SDS011;3617;48.836;9.172;2023-03-04T14:36:18;23.10;;;10.60;;
7150;SDS011;3617;48.836;9.172;2023-03-04T14:38:46;18.57;;;10.07;;
7150;SDS011;3617;48.836;9.172;2023-03-04T14:41:17;21.80;;;10.17;;
7150;SDS011;3617;48.836;9.172;2023-03-04T14:46:16;22.33;;;10.83;;
7150;SDS011;3617;48.836;9.172;2023-03-04T14:48:49;26.33;;;9.80;;
7150;SDS011;3617;48.836;9.172;2023-03-04T14:51:26;22.23;;;9.70;;
7150;SDS011;3617;48.836;9.172;2023-03-04T14:53:53;20.47;;;9.33;;
7150;SDS011;3617;48.836;9.172;2023-03-04T14:56:25;19.77;;;9.23;;
7150;SDS011;3617;48.836;9.172;2023-03-04T14:58:52;19.33;;;9.27;;
7150;SDS011;3617;48.836;9.172;2023-03-04T15:01:20;23.83;;;9.43;;
7150;SDS011;3617;48.836;9.172;2023-03-04T15:03:52;22.77;;;9.80;;
7150;SDS011;3617;48.836;9.172;2023-03-04T15:06:21;22.67;;;11.13;;
7150;SDS011;3617;48.836;9.172;2023-03-04T15:09:01;20.57;;;10.17;;
7150;SDS011;3617;48.836;9.172;2023-03-04T15:12:10;21.67;;;10.57;;
7150;SDS011;3617;48.836;9.172;2023-03-04T15:17:02;21.73;;;9.63;;
7150;SDS011;3617;48.836;9.172;2023-03-04T15:19:28;21.77;;;9.87;;
7150;SDS011;3617;48.836;9.172;2023-03-04T15:22:04;26.63;;;10.10;;
7150;SDS011;3617;48.836;9.172;2023-03-04T15:24:30;22.10;;;9.27;;
7150;SDS011;3617;48.836;9.172;2023-03-04T15:26:56;23.13;;;9.43;;
7150;SDS011;3617;48.836;9.172;2023-03-04T15:29:23;26.30;;;12.03;;
7150;SDS011;3617;48.836;9.172;2023-03-04T15:31:49;25.50;;;10.40;;
7150;SDS011;3617;48.836;9.172;2023-03-04T15:34:17;22.37;;;11.17;;
7150;SDS011;3617;48.836;9.172;2023-03-04T15:36:48;27.70;;;11.87;;
7150;SDS011;3617;48.836;9.172;2023-03-04T15:39:15;24.60;;;11.17;;
7150;SDS011;3617;48.836;9.172;2023-03-04T15:41:41;23.67;;;10.77;;
7150;SDS011;3617;48.836;9.172;2023-03-04T15:44:10;25.97;;;12.13;;
7150;SDS011;3617;48.836;9.172;2023-03-04T15:46:36;23.07;;;11.30;;
7150;SDS011;3617;48.836;9.172;2023-03-04T15:49:02;26.40;;;12.13;;
7150;SDS011;3617;48.836;9.172;2023-03-04T15:51:28;23.27;;;10.87;;
7150;SDS011;3617;48.836;9.172;2023-03-04T15:53:55;21.50;;;10.57;;
7150;SDS011;3617;48.836;9.172;2023-03-04T15:56:23;23.03;;;11.53;;
7150;SDS011;3617;48.836;9.172;2023-03-04T15:58:57;25.97;;;11.17;;
7150;SDS011;3617;48.836;9.172;2023-03-04T16:01:24;25.37;;;10.20;;
7150;SDS011;3617;48.836;9.172;2023-03-04T16:03:50;30.80;;;11.83;;
7150;SDS011;3617;48.836;9.172;2023-03-04T16:06:17;23.00;;;10.80;;
7150;SDS011;3617;48.836;9.172;2023-03-04T16:08:45;22.37;;;11.40;;
7150;SDS011;3617;48.836;9.172;2023-03-04T16:11:13;25.83;;;11.40;;
7150;SDS011;3617;48.836;9.172;2023-03-04T16:13:40;22.90;;;10.73;;
7150;SDS011;3617;48.836;9.172;2023-03-04T16:16:10;23.53;;;11.77;;
7150;SDS011;3617;48.836;9.172;2023-03-04T16:18:36;23.40;;;11.10;;
7150;SDS011;3617;48.836;9.172;2023-03-04T16:21:02;31.27;;;11.80;;
7150;SDS011;3617;48.836;9.172;2023-03-04T16:23:28;23.20;;;11.07;;
7150;SDS011;3617;48.836;9.172;2023-03-04T16:25:56;22.40;;;10.70;;